createdAt,value
2019-03-20T00:00:35.959Z,11.23
2019-03-20T00:03:05.781Z,12.43
2019-03-20T00:05:35.500Z,13.37
2019-03-20T00:08:05.063Z,13.57
2019-03-20T00:10:34.587Z,13.77
2019-03-20T00:13:04.198Z,9.90
2019-03-20T00:15:33.739Z,10.23
2019-03-20T00:18:03.397Z,8.47
2019-03-20T00:20:32.920Z,8.20
2019-03-20T00:23:02.461Z,7.77
2019-03-20T00:25:31.977Z,8.40
2019-03-20T00:28:01.539Z,9.90
2019-03-20T00:30:31.068Z,9.50
2019-03-20T00:33:00.599Z,8.40
2019-03-20T00:35:30.118Z,9.47
2019-03-20T00:37:59.680Z,10.00
2019-03-20T00:40:29.216Z,8.67
2019-03-20T00:42:58.758Z,9.47
2019-03-20T00:45:29.694Z,9.27
2019-03-20T00:47:59.303Z,9.13
2019-03-20T00:50:28.863Z,9.97
2019-03-20T00:52:58.413Z,9.63
2019-03-20T00:55:27.958Z,10.33
2019-03-20T00:57:57.493Z,10.20
2019-03-20T01:00:27.043Z,10.07
2019-03-20T01:02:56.582Z,12.50
2019-03-20T01:05:26.215Z,12.37
2019-03-20T01:07:55.779Z,12.43
2019-03-20T01:10:25.322Z,15.30
2019-03-20T01:12:54.877Z,18.63
2019-03-20T01:15:24.404Z,17.80
2019-03-20T01:17:53.960Z,19.37
2019-03-20T01:20:23.510Z,17.23
2019-03-20T01:22:53.072Z,17.90
2019-03-20T01:25:22.607Z,15.07
2019-03-20T01:27:52.204Z,16.20
2019-03-20T01:30:37.942Z,16.37
2019-03-20T01:33:09.054Z,14.60
2019-03-20T01:35:38.604Z,15.47
2019-03-20T01:38:08.237Z,15.80
2019-03-20T01:40:40.026Z,16.03
2019-03-20T01:43:09.159Z,14.90
2019-03-20T01:45:38.695Z,15.07
2019-03-20T01:48:08.230Z,14.37
2019-03-20T01:50:37.764Z,15.43
2019-03-20T01:53:07.306Z,12.23
2019-03-20T01:55:36.828Z,15.37
2019-03-20T01:58:06.385Z,12.13
2019-03-20T02:00:35.920Z,13.33
2019-03-20T02:03:05.477Z,13.07
2019-03-20T02:05:36.520Z,14.90
2019-03-20T02:08:06.246Z,13.93
2019-03-20T02:10:35.767Z,14.23
2019-03-20T02:13:05.315Z,13.90
2019-03-20T02:15:39.359Z,14.67
2019-03-20T02:18:06.122Z,13.53
2019-03-20T02:20:35.657Z,15.90
2019-03-20T02:23:05.283Z,13.70
2019-03-20T02:25:34.820Z,14.30
2019-03-20T02:28:04.434Z,15.37
2019-03-20T02:30:33.966Z,14.43
2019-03-20T02:33:03.518Z,15.03
2019-03-20T02:35:33.049Z,15.17
2019-03-20T02:38:02.608Z,14.90
2019-03-20T02:40:32.149Z,14.13
2019-03-20T02:43:01.699Z,14.53
2019-03-20T02:45:31.266Z,15.87
2019-03-20T02:48:00.813Z,14.70
2019-03-20T02:50:30.426Z,15.00
2019-03-20T02:52:59.971Z,14.90
2019-03-20T02:55:29.531Z,15.87
2019-03-20T02:57:59.260Z,14.97
2019-03-20T03:00:28.800Z,15.70
2019-03-20T03:02:58.352Z,15.30
2019-03-20T03:05:27.885Z,17.40
2019-03-20T03:07:57.442Z,16.80
2019-03-20T03:10:27.005Z,16.30
2019-03-20T03:12:56.559Z,16.83
2019-03-20T03:15:26.188Z,17.50
2019-03-20T03:17:55.705Z,16.97
2019-03-20T03:20:25.265Z,16.73
2019-03-20T03:22:54.804Z,14.90
2019-03-20T03:25:24.373Z,15.80
2019-03-20T03:27:53.983Z,17.67
2019-03-20T03:30:23.510Z,17.10
2019-03-20T03:32:53.091Z,16.40
2019-03-20T03:35:22.619Z,17.87
2019-03-20T03:37:52.178Z,16.37
2019-03-20T03:40:21.742Z,15.77
2019-03-20T03:42:51.282Z,17.97
2019-03-20T03:45:20.809Z,18.50
2019-03-20T03:47:50.362Z,17.07
2019-03-20T03:50:19.908Z,17.07
2019-03-20T03:52:49.441Z,17.20
2019-03-20T03:55:18.985Z,17.00
2019-03-20T03:57:48.560Z,17.97
2019-03-20T04:00:18.141Z,14.90
2019-03-20T04:02:47.687Z,15.17
2019-03-20T04:05:17.239Z,16.63
2019-03-20T04:07:46.793Z,15.50
2019-03-20T04:10:16.329Z,15.90
2019-03-20T04:12:45.915Z,17.10
2019-03-20T04:15:15.479Z,16.00
2019-03-20T04:17:45.052Z,17.20
2019-03-20T04:20:14.614Z,17.50
2019-03-20T04:22:44.151Z,20.27
2019-03-20T04:25:13.692Z,18.33
2019-03-20T04:27:43.280Z,22.10
2019-03-20T04:30:12.861Z,21.93
2019-03-20T04:32:42.394Z,21.17
2019-03-20T04:35:11.948Z,20.80
2019-03-20T04:37:41.563Z,19.27
2019-03-20T04:40:11.173Z,22.73
2019-03-20T04:42:40.713Z,20.93
2019-03-20T04:45:12.652Z,20.87
2019-03-20T04:47:42.337Z,18.90
2019-03-20T04:50:12.009Z,17.80
2019-03-20T04:52:41.534Z,19.47
2019-03-20T04:55:11.122Z,18.87
2019-03-20T04:57:40.784Z,19.30
2019-03-20T05:00:12.657Z,20.80
2019-03-20T05:02:42.210Z,21.40
2019-03-20T05:05:11.737Z,20.70
2019-03-20T05:07:41.295Z,20.00
2019-03-20T05:10:12.291Z,19.70
2019-03-20T05:12:41.877Z,20.60
2019-03-20T05:15:11.491Z,22.33
2019-03-20T05:17:41.042Z,19.53
2019-03-20T05:20:11.821Z,20.00
2019-03-20T05:22:41.388Z,21.63
2019-03-20T05:25:10.955Z,21.57
2019-03-20T05:27:40.543Z,21.10
2019-03-20T05:30:11.052Z,21.00
2019-03-20T05:32:40.662Z,21.07
2019-03-20T05:35:10.220Z,21.57
2019-03-20T05:37:39.789Z,23.47
2019-03-20T05:40:10.525Z,23.87
2019-03-20T05:42:40.070Z,22.57
2019-03-20T05:45:10.888Z,22.20
2019-03-20T05:47:40.451Z,23.07
2019-03-20T05:50:10.861Z,21.30
2019-03-20T05:52:40.421Z,23.90
2019-03-20T05:55:09.979Z,22.27
2019-03-20T05:57:39.574Z,23.50
2019-03-20T06:00:10.438Z,22.80
2019-03-20T06:02:39.983Z,21.40
2019-03-20T06:05:09.544Z,20.80
2019-03-20T06:07:39.092Z,23.83
2019-03-20T06:10:10.444Z,22.20
2019-03-20T06:12:40.108Z,24.30
2019-03-20T06:15:09.673Z,23.17
2019-03-20T06:17:39.231Z,23.70
2019-03-20T06:20:08.989Z,22.60
2019-03-20T06:22:38.537Z,22.70
2019-03-20T06:25:08.438Z,22.83
2019-03-20T06:27:37.968Z,22.80
2019-03-20T06:30:09.164Z,22.87
2019-03-20T06:32:38.700Z,22.23
2019-03-20T06:35:08.879Z,24.23
2019-03-20T06:37:38.454Z,23.10
2019-03-20T06:40:08.601Z,21.80
2019-03-20T06:42:38.124Z,23.97
2019-03-20T06:45:08.546Z,25.83
2019-03-20T06:47:38.108Z,24.70
2019-03-20T06:50:10.782Z,21.50
2019-03-20T06:52:40.316Z,23.07
2019-03-20T06:55:09.958Z,23.33
2019-03-20T06:57:39.523Z,21.23
2019-03-20T07:00:52.996Z,21.60
2019-03-20T07:03:41.812Z,23.20
2019-03-20T07:06:35.655Z,24.83
2019-03-20T07:09:15.998Z,22.40
2019-03-20T07:11:45.589Z,20.40
2019-03-20T07:14:15.122Z,20.83
2019-03-20T07:16:44.666Z,22.47
2019-03-20T07:19:14.211Z,20.90
2019-03-20T07:21:43.807Z,19.90
2019-03-20T07:24:13.386Z,20.03
2019-03-20T07:26:42.922Z,22.20
2019-03-20T07:29:12.481Z,18.43
2019-03-20T07:31:42.015Z,18.87
2019-03-20T07:34:11.569Z,19.47
2019-03-20T07:36:41.116Z,19.60
2019-03-20T07:39:11.074Z,17.70
2019-03-20T07:41:40.723Z,17.70
2019-03-20T07:44:10.268Z,17.83
2019-03-20T07:46:39.802Z,18.83
2019-03-20T07:49:09.372Z,18.10
2019-03-20T07:51:38.910Z,18.73
2019-03-20T07:54:08.288Z,19.10
2019-03-20T07:56:37.820Z,18.50
2019-03-20T07:59:07.372Z,17.70
2019-03-20T08:01:36.911Z,18.67
2019-03-20T08:04:06.474Z,15.97
2019-03-20T08:06:36.141Z,17.13
2019-03-20T08:09:07.638Z,18.50
2019-03-20T08:11:37.167Z,16.97
2019-03-20T08:14:06.706Z,18.03
2019-03-20T08:16:36.263Z,18.07
2019-03-20T08:19:05.799Z,16.53
2019-03-20T08:21:35.338Z,17.47
2019-03-20T08:24:04.884Z,19.90
2019-03-20T08:26:34.520Z,18.03
2019-03-20T08:29:04.065Z,17.20
2019-03-20T08:31:33.613Z,18.27
2019-03-20T08:34:03.160Z,17.40
2019-03-20T08:36:32.799Z,17.77
2019-03-20T08:39:02.316Z,17.00
2019-03-20T08:41:31.859Z,17.13
2019-03-20T08:44:01.399Z,17.10
2019-03-20T08:46:30.960Z,18.97
2019-03-20T08:49:00.489Z,18.47
2019-03-20T08:51:30.044Z,15.17
2019-03-20T08:53:59.594Z,17.60
2019-03-20T08:56:29.171Z,17.03
2019-03-20T08:58:58.750Z,17.40
2019-03-20T09:01:29.118Z,18.37
2019-03-20T09:03:58.844Z,36.93
2019-03-20T09:06:28.400Z,22.00
2019-03-20T09:08:57.946Z,18.27
2019-03-20T09:11:27.510Z,25.13
2019-03-20T09:13:57.054Z,22.60
2019-03-20T09:16:27.381Z,16.73
2019-03-20T09:18:57.117Z,15.33
2019-03-20T09:21:26.750Z,18.80
2019-03-20T09:23:56.275Z,17.53
2019-03-20T09:26:25.846Z,18.20
2019-03-20T09:28:55.392Z,16.50
2019-03-20T09:31:24.942Z,19.40
2019-03-20T09:33:54.607Z,34.50
2019-03-20T09:36:24.232Z,40.20
2019-03-20T09:38:53.782Z,18.80
2019-03-20T09:41:23.380Z,14.97
2019-03-20T09:43:52.926Z,33.53
2019-03-20T09:46:22.536Z,32.07
2019-03-20T09:48:52.103Z,17.07
2019-03-20T09:51:21.649Z,14.80
2019-03-20T09:53:51.181Z,13.70
2019-03-20T09:56:20.720Z,14.70
2019-03-20T09:58:50.278Z,14.60
2019-03-20T10:01:19.827Z,12.80
2019-03-20T10:03:49.382Z,13.00
2019-03-20T10:06:18.935Z,12.90
2019-03-20T10:08:53.941Z,12.53
2019-03-20T10:11:19.764Z,12.30
2019-03-20T10:13:49.311Z,13.10
2019-03-20T10:16:18.858Z,11.30
2019-03-20T10:18:48.449Z,13.77
2019-03-20T10:21:17.988Z,11.03
2019-03-20T10:23:47.539Z,10.83
2019-03-20T10:26:17.070Z,10.50
2019-03-20T10:28:46.624Z,12.60
2019-03-20T10:31:16.163Z,11.17
2019-03-20T10:33:45.747Z,9.20
2019-03-20T10:36:15.271Z,11.60
2019-03-20T10:38:44.852Z,10.13
2019-03-20T10:41:14.409Z,9.90
2019-03-20T10:43:43.959Z,9.60
2019-03-20T10:46:13.498Z,10.43
2019-03-20T10:48:43.046Z,11.00
2019-03-20T10:51:12.591Z,9.57
2019-03-20T10:53:42.153Z,10.73
2019-03-20T10:56:11.878Z,9.67
2019-03-20T10:58:41.430Z,10.47
2019-03-20T11:01:11.031Z,9.80
2019-03-20T11:03:40.592Z,11.20
2019-03-20T11:06:10.165Z,9.60
2019-03-20T11:08:39.717Z,9.70
2019-03-20T11:11:09.272Z,8.73
2019-03-20T11:13:38.837Z,9.00
2019-03-20T11:16:08.419Z,8.87
2019-03-20T11:18:38.309Z,8.90
2019-03-20T11:21:08.013Z,7.57
2019-03-20T11:23:37.604Z,8.93
2019-03-20T11:26:07.486Z,6.83
2019-03-20T11:28:37.183Z,6.63
2019-03-20T11:31:06.725Z,7.40
2019-03-20T11:33:36.517Z,7.43
2019-03-20T11:36:06.079Z,6.67
2019-03-20T11:38:35.626Z,7.60
2019-03-20T11:41:05.325Z,8.67
2019-03-20T11:43:34.878Z,6.47
2019-03-20T11:46:04.422Z,8.17
2019-03-20T11:48:33.973Z,9.03
2019-03-20T11:51:03.535Z,8.17
2019-03-20T11:53:33.083Z,9.37
2019-03-20T11:56:02.615Z,7.93
2019-03-20T11:58:32.173Z,7.80
2019-03-20T12:01:01.863Z,7.60
2019-03-20T12:03:31.605Z,9.40
2019-03-20T12:06:01.136Z,7.27
2019-03-20T12:08:30.695Z,7.20
2019-03-20T12:11:00.282Z,8.57
2019-03-20T12:13:29.854Z,7.40
2019-03-20T12:15:59.596Z,6.87
2019-03-20T12:18:29.203Z,9.50
2019-03-20T12:20:58.809Z,8.37
2019-03-20T12:23:28.382Z,6.60
2019-03-20T12:25:57.917Z,5.83
2019-03-20T12:28:27.499Z,7.70
2019-03-20T12:30:57.025Z,6.20
2019-03-20T12:33:26.551Z,5.90
2019-03-20T12:35:56.101Z,7.57
2019-03-20T12:38:25.699Z,7.80
2019-03-20T12:40:55.240Z,8.10
2019-03-20T12:43:24.793Z,6.10
2019-03-20T12:45:54.348Z,8.30
2019-03-20T12:48:23.950Z,7.23
2019-03-20T12:50:53.503Z,7.43
2019-03-20T12:53:24.060Z,7.27
2019-03-20T12:55:53.609Z,7.63
2019-03-20T12:58:23.156Z,7.80
2019-03-20T13:00:54.546Z,6.70
2019-03-20T13:03:23.974Z,6.20
2019-03-20T13:05:53.536Z,7.80
2019-03-20T13:08:23.159Z,8.40
2019-03-20T13:10:52.654Z,8.83
2019-03-20T13:13:22.185Z,6.93
2019-03-20T13:15:51.773Z,7.80
2019-03-20T13:18:21.318Z,7.47
2019-03-20T13:20:50.938Z,7.60
2019-03-20T13:23:22.752Z,8.93
2019-03-20T13:25:52.294Z,7.60
2019-03-20T13:28:21.849Z,8.90
2019-03-20T13:30:54.623Z,9.23
2019-03-20T13:33:26.053Z,8.73
2019-03-20T13:35:55.442Z,9.07
2019-03-20T13:38:25.014Z,8.93
2019-03-20T13:40:54.546Z,9.63
2019-03-20T13:43:24.078Z,7.97
2019-03-20T13:45:53.606Z,9.30
2019-03-20T13:48:23.179Z,8.90
2019-03-20T13:50:52.735Z,10.17
2019-03-20T13:53:22.278Z,9.83
2019-03-20T13:55:51.816Z,10.00
2019-03-20T13:58:21.353Z,9.00
2019-03-20T14:00:50.941Z,9.73
2019-03-20T14:03:20.531Z,7.93
2019-03-20T14:05:50.072Z,8.70
2019-03-20T14:08:19.615Z,7.90
2019-03-20T14:10:50.818Z,9.37
2019-03-20T14:13:20.575Z,9.53
2019-03-20T14:15:50.125Z,8.90
2019-03-20T14:18:19.693Z,7.87
2019-03-20T14:20:49.242Z,8.90
2019-03-20T14:23:18.787Z,8.03
2019-03-20T14:25:48.312Z,12.33
2019-03-20T14:28:17.851Z,9.20
2019-03-20T14:30:47.394Z,9.60
2019-03-20T14:33:16.947Z,9.20
2019-03-20T14:35:46.489Z,10.40
2019-03-20T14:38:16.022Z,10.70
2019-03-20T14:40:45.557Z,10.73
2019-03-20T14:43:15.175Z,10.00
2019-03-20T14:45:44.842Z,11.60
2019-03-20T14:48:14.390Z,8.70
2019-03-20T14:50:43.926Z,9.00
2019-03-20T14:53:13.474Z,10.90
2019-03-20T14:55:43.052Z,11.10
2019-03-20T14:58:12.587Z,9.47
2019-03-20T15:00:42.136Z,11.97
2019-03-20T15:03:11.679Z,8.10
2019-03-20T15:05:41.354Z,6.10
2019-03-20T15:08:10.872Z,7.80
2019-03-20T15:10:45.838Z,6.03
2019-03-20T15:13:11.710Z,7.60
2019-03-20T15:15:47.558Z,7.50
2019-03-20T15:18:17.087Z,6.20
2019-03-20T15:20:46.654Z,6.70
2019-03-20T15:23:16.235Z,7.70
2019-03-20T15:25:45.785Z,7.30
2019-03-20T15:28:15.347Z,8.40
2019-03-20T15:30:44.888Z,8.10
2019-03-20T15:33:14.447Z,7.57
2019-03-20T15:35:44.024Z,8.27
2019-03-20T15:38:13.556Z,7.50
2019-03-20T15:40:43.087Z,8.20
2019-03-20T15:43:12.639Z,10.30
2019-03-20T15:45:42.304Z,9.67
2019-03-20T15:48:11.870Z,11.23
2019-03-20T15:50:41.426Z,9.90
2019-03-20T15:53:11.088Z,9.63
2019-03-20T15:55:40.621Z,9.23
2019-03-20T15:58:10.225Z,8.73
2019-03-20T16:00:39.890Z,8.93
2019-03-20T16:03:12.269Z,8.73
2019-03-20T16:05:41.814Z,8.83
2019-03-20T16:08:11.388Z,8.00
2019-03-20T16:10:40.964Z,9.00
2019-03-20T16:13:10.502Z,8.23
2019-03-20T16:15:40.046Z,10.33
2019-03-20T16:18:09.641Z,15.97
2019-03-20T16:20:39.187Z,16.67
2019-03-20T16:23:08.769Z,21.20
2019-03-20T16:25:38.300Z,20.17
2019-03-20T16:28:07.895Z,20.50
2019-03-20T16:30:37.432Z,24.77
2019-03-20T16:33:06.993Z,25.30
2019-03-20T16:35:36.538Z,27.67
2019-03-20T16:38:07.049Z,27.97
2019-03-20T16:40:36.953Z,26.20
2019-03-20T16:43:06.497Z,25.50
2019-03-20T16:45:36.088Z,26.57
2019-03-20T16:48:05.714Z,27.70
2019-03-20T16:50:35.279Z,28.27
2019-03-20T16:53:04.817Z,29.23
2019-03-20T16:55:34.371Z,36.97
2019-03-20T16:58:03.947Z,34.67
2019-03-20T17:00:33.502Z,37.97
2019-03-20T17:03:03.036Z,30.87
2019-03-20T17:05:32.669Z,26.37
2019-03-20T17:08:02.218Z,18.83
2019-03-20T17:10:34.129Z,20.43
2019-03-20T17:13:03.748Z,21.73
2019-03-20T17:15:33.387Z,21.70
2019-03-20T17:18:02.895Z,22.20
2019-03-20T17:20:32.451Z,25.90
2019-03-20T17:23:02.014Z,25.03
2019-03-20T17:25:31.619Z,25.13
2019-03-20T17:28:01.169Z,23.03
2019-03-20T17:30:32.732Z,27.57
2019-03-20T17:33:02.386Z,32.83
2019-03-20T17:35:31.942Z,34.33
2019-03-20T17:38:01.574Z,33.27
2019-03-20T17:40:31.112Z,33.87
2019-03-20T17:43:00.662Z,31.33
2019-03-20T17:45:30.240Z,29.20
2019-03-20T17:47:59.789Z,25.70
2019-03-20T17:50:29.601Z,23.93
2019-03-20T17:52:59.193Z,24.70
2019-03-20T17:55:28.832Z,24.47
2019-03-20T17:57:58.391Z,23.70
2019-03-20T18:00:35.909Z,25.37
2019-03-20T18:03:05.570Z,25.57
2019-03-20T18:05:35.109Z,28.53
2019-03-20T18:08:04.820Z,31.20
2019-03-20T18:10:34.347Z,32.03
2019-03-20T18:13:03.910Z,24.87
2019-03-20T18:15:33.439Z,23.67
2019-03-20T18:18:03.038Z,23.37
2019-03-20T18:20:32.605Z,24.40
2019-03-20T18:23:02.162Z,25.83
2019-03-20T18:25:31.690Z,23.90
2019-03-20T18:28:01.310Z,24.97
2019-03-20T18:30:31.030Z,27.63
2019-03-20T18:33:00.599Z,27.03
2019-03-20T18:35:30.149Z,27.40
2019-03-20T18:37:59.663Z,20.93
2019-03-20T18:40:29.214Z,20.90
2019-03-20T18:42:58.832Z,22.77
2019-03-20T18:45:28.408Z,22.13
2019-03-20T18:47:57.935Z,22.57
2019-03-20T18:50:27.494Z,27.40
2019-03-20T18:52:57.039Z,21.40
2019-03-20T18:55:26.693Z,21.93
2019-03-20T18:57:56.300Z,21.20
2019-03-20T19:00:26.213Z,21.00
2019-03-20T19:02:56.620Z,19.33
2019-03-20T19:05:35.653Z,19.17
2019-03-20T19:08:05.317Z,20.53
2019-03-20T19:10:34.938Z,20.17
2019-03-20T19:13:04.560Z,20.43
2019-03-20T19:15:34.126Z,22.17
2019-03-20T19:18:03.731Z,22.33
2019-03-20T19:20:33.318Z,24.10
2019-03-20T19:23:02.855Z,26.50
2019-03-20T19:25:36.358Z,29.50
2019-03-20T19:28:06.025Z,30.33
2019-03-20T19:30:35.598Z,28.00
2019-03-20T19:33:05.277Z,31.53
2019-03-20T19:35:34.817Z,29.13
2019-03-20T19:38:04.352Z,24.60
2019-03-20T19:41:37.004Z,23.03
2019-03-20T19:44:50.006Z,26.10
2019-03-20T19:48:29.541Z,28.03
2019-03-20T19:51:14.943Z,27.47
2019-03-20T19:54:02.236Z,30.47
2019-03-20T19:56:37.838Z,30.73
2019-03-20T19:59:07.378Z,28.43
2019-03-20T20:02:30.834Z,24.93
2019-03-20T20:05:00.422Z,22.37
2019-03-20T20:07:29.973Z,25.13
2019-03-20T20:09:59.514Z,26.23
2019-03-20T20:12:31.497Z,26.30
2019-03-20T20:15:00.418Z,25.23
2019-03-20T20:17:29.947Z,24.20
2019-03-20T20:19:59.531Z,23.30
2019-03-20T20:22:29.075Z,23.23
2019-03-20T20:24:58.628Z,24.23
2019-03-20T20:27:28.241Z,21.80
2019-03-20T20:29:57.823Z,23.13
2019-03-20T20:32:27.365Z,22.90
2019-03-20T20:34:56.905Z,24.73
2019-03-20T20:37:26.542Z,24.63
2019-03-20T20:39:56.198Z,23.70
2019-03-20T20:42:25.768Z,23.57
2019-03-20T20:44:55.308Z,25.77
2019-03-20T20:47:24.847Z,22.07
2019-03-20T20:49:54.521Z,26.40
2019-03-20T20:52:24.079Z,23.37
2019-03-20T20:54:53.688Z,24.50
2019-03-20T20:57:23.224Z,24.90
2019-03-20T20:59:52.800Z,24.10
2019-03-20T21:02:22.331Z,23.03
2019-03-20T21:04:51.908Z,22.10
2019-03-20T21:07:21.474Z,19.73
2019-03-20T21:09:51.035Z,18.40
2019-03-20T21:12:20.573Z,18.77
2019-03-20T21:14:51.112Z,20.33
2019-03-20T21:17:27.396Z,19.13
2019-03-20T21:19:57.474Z,21.20
2019-03-20T21:23:03.683Z,17.40
2019-03-20T21:25:33.806Z,23.77
2019-03-20T21:28:50.469Z,21.83
2019-03-20T21:31:40.710Z,21.50
2019-03-20T21:34:56.950Z,22.70
2019-03-20T21:38:10.733Z,27.07
2019-03-20T21:41:21.453Z,22.60
2019-03-20T21:44:42.429Z,22.90
2019-03-20T21:47:33.616Z,20.03
2019-03-20T21:51:02.110Z,17.57
2019-03-20T21:54:11.279Z,20.10
2019-03-20T21:56:45.070Z,20.80
2019-03-20T21:59:45.244Z,21.60
2019-03-20T22:02:42.436Z,20.93
2019-03-20T22:05:55.222Z,20.37
2019-03-20T22:08:25.296Z,19.80
2019-03-20T22:11:41.999Z,21.50
2019-03-20T22:14:12.073Z,20.30
2019-03-20T22:17:17.442Z,20.70
2019-03-20T22:20:37.015Z,22.10
2019-03-20T22:23:40.328Z,19.93
2019-03-20T22:26:46.769Z,19.13
2019-03-20T22:29:27.381Z,21.23
2019-03-20T22:32:44.394Z,19.07
2019-03-20T22:35:47.475Z,19.30
2019-03-20T22:39:09.282Z,20.83
2019-03-20T22:42:25.943Z,21.53
2019-03-20T22:45:20.523Z,18.57
2019-03-20T22:48:18.881Z,20.90
2019-03-20T22:51:16.982Z,20.83
2019-03-20T22:54:18.199Z,23.17
2019-03-20T22:57:11.792Z,23.37
2019-03-20T22:59:41.866Z,25.80
2019-03-20T23:02:38.149Z,26.50
2019-03-20T23:05:09.188Z,22.80
2019-03-20T23:07:39.300Z,22.10
2019-03-20T23:10:11.991Z,21.37
2019-03-20T23:12:42.072Z,20.57
2019-03-20T23:15:14.596Z,21.20
2019-03-20T23:17:44.694Z,20.30
2019-03-20T23:20:17.281Z,20.17
2019-03-20T23:22:47.369Z,19.10
2019-03-20T23:25:17.453Z,21.80
2019-03-20T23:27:47.568Z,19.50
2019-03-20T23:30:20.633Z,18.13
2019-03-20T23:32:50.705Z,20.30
2019-03-20T23:35:20.796Z,18.43
2019-03-20T23:37:50.910Z,19.60
2019-03-20T23:40:20.986Z,20.43
2019-03-20T23:42:51.121Z,18.83
2019-03-20T23:45:21.219Z,19.13
2019-03-20T23:48:17.716Z,20.40
2019-03-20T23:50:48.226Z,18.50
2019-03-20T23:53:18.292Z,19.70
2019-03-20T23:55:48.364Z,18.50
2019-03-20T23:58:18.426Z,19.40
